createdAt,value
2023-04-18T00:00:30.150Z,95203.00
2023-04-18T00:01:30.186Z,95199.00
2023-04-18T00:02:30.321Z,95201.00
2023-04-18T00:03:30.650Z,95201.00
2023-04-18T00:04:30.512Z,95199.00
2023-04-18T00:05:30.437Z,95201.00
2023-04-18T00:06:30.475Z,95199.00
2023-04-18T00:07:30.588Z,95199.00
2023-04-18T00:08:30.593Z,95199.00
2023-04-18T00:09:30.680Z,95199.00
2023-04-18T00:10:30.732Z,95199.00
2023-04-18T00:11:30.772Z,95199.00
2023-04-18T00:12:30.879Z,95199.00
2023-04-18T00:13:30.898Z,95197.00
2023-04-18T00:14:30.966Z,95197.00
2023-04-18T00:15:31.010Z,95193.00
2023-04-18T00:16:31.102Z,95191.00
2023-04-18T00:17:31.167Z,95193.00
2023-04-18T00:18:31.215Z,95195.00
2023-04-18T00:19:31.258Z,95193.00
2023-04-18T00:20:31.315Z,95191.00
2023-04-18T00:21:31.329Z,95189.00
2023-04-18T00:22:31.374Z,95189.00
2023-04-18T00:23:31.405Z,95187.00
2023-04-18T00:24:31.478Z,95189.00
2023-04-18T00:25:31.560Z,95189.00
2023-04-18T00:26:31.579Z,95193.00
2023-04-18T00:27:31.643Z,95189.00
2023-04-18T00:28:31.744Z,95195.00
2023-04-18T00:29:31.770Z,95195.00
2023-04-18T00:30:31.858Z,95191.00
2023-04-18T00:31:32.009Z,95191.00
2023-04-18T00:32:32.050Z,95191.00
2023-04-18T00:33:32.023Z,95195.00
2023-04-18T00:34:32.132Z,95193.00
2023-04-18T00:35:32.168Z,95195.00
2023-04-18T00:36:32.239Z,95195.00
2023-04-18T00:37:32.248Z,95195.00
2023-04-18T00:38:32.284Z,95193.00
2023-04-18T00:39:32.374Z,95191.00
2023-04-18T00:40:32.436Z,95191.00
2023-04-18T00:41:32.467Z,95189.00
2023-04-18T00:42:32.521Z,95191.00
2023-04-18T00:43:32.585Z,95191.00
2023-04-18T00:44:32.657Z,95193.00
2023-04-18T00:45:32.717Z,95193.00
2023-04-18T00:46:32.902Z,95189.00
2023-04-18T00:47:32.908Z,95191.00
2023-04-18T00:48:32.904Z,95189.00
2023-04-18T00:49:32.974Z,95187.00
2023-04-18T00:50:33.017Z,95185.00
2023-04-18T00:51:33.060Z,95187.00
2023-04-18T00:52:33.156Z,95185.00
2023-04-18T00:53:33.198Z,95185.00
2023-04-18T00:54:33.261Z,95185.00
2023-04-18T00:55:33.281Z,95187.00
2023-04-18T00:56:33.370Z,95187.00
2023-04-18T00:57:33.438Z,95185.00
2023-04-18T00:58:33.489Z,95187.00
2023-04-18T00:59:33.555Z,95187.00
2023-04-18T01:00:33.591Z,95185.00
2023-04-18T01:01:33.713Z,95185.00
2023-04-18T01:02:33.808Z,95183.00
2023-04-18T01:03:34.077Z,95183.00
2023-04-18T01:04:33.954Z,95183.00
2023-04-18T01:05:33.878Z,95181.00
2023-04-18T01:06:33.977Z,95181.00
2023-04-18T01:07:34.011Z,95183.00
2023-04-18T01:08:34.093Z,95183.00
2023-04-18T01:09:34.159Z,95185.00
2023-04-18T01:10:34.219Z,95183.00
2023-04-18T01:11:34.308Z,95185.00
2023-04-18T01:12:34.317Z,95187.00
2023-04-18T01:13:34.358Z,95185.00
2023-04-18T01:14:34.446Z,95183.00
2023-04-18T01:15:34.546Z,95183.00
2023-04-18T01:16:34.564Z,95185.00
2023-04-18T01:17:34.723Z,95183.00
2023-04-18T01:18:34.706Z,95181.00
2023-04-18T01:19:34.759Z,95181.00
2023-04-18T01:20:34.794Z,95183.00
2023-04-18T01:21:34.832Z,95179.00
2023-04-18T01:22:34.882Z,95179.00
2023-04-18T01:23:34.921Z,95177.00
2023-04-18T01:24:34.973Z,95175.00
2023-04-18T01:25:35.017Z,95174.00
2023-04-18T01:26:35.050Z,95175.00
2023-04-18T01:27:35.146Z,95174.00
2023-04-18T01:28:35.200Z,95174.00
2023-04-18T01:29:36.295Z,95174.00
2023-04-18T01:30:35.424Z,95174.00
2023-04-18T01:31:35.416Z,95172.00
2023-04-18T01:32:35.498Z,95174.00
2023-04-18T01:33:35.540Z,95172.00
2023-04-18T01:34:35.579Z,95170.00
2023-04-18T01:35:35.669Z,95170.00
2023-04-18T01:36:35.703Z,95172.00
2023-04-18T01:37:35.775Z,95170.00
2023-04-18T01:38:35.870Z,95168.00
2023-04-18T01:39:35.924Z,95170.00
2023-04-18T01:40:36.013Z,95168.00
2023-04-18T01:41:36.078Z,95170.00
2023-04-18T01:42:36.140Z,95168.00
2023-04-18T01:43:36.180Z,95170.00
2023-04-18T01:44:36.275Z,95170.00
2023-04-18T01:45:36.294Z,95168.00
2023-04-18T01:46:36.379Z,95168.00
2023-04-18T01:47:36.436Z,95168.00
2023-04-18T01:48:36.484Z,95170.00
2023-04-18T01:49:36.517Z,95168.00
2023-04-18T01:50:36.562Z,95170.00
2023-04-18T01:51:36.629Z,95170.00
2023-04-18T01:52:36.677Z,95168.00
2023-04-18T01:53:36.756Z,95168.00
2023-04-18T01:54:36.826Z,95170.00
2023-04-18T01:55:36.890Z,95170.00
2023-04-18T01:56:36.986Z,95174.00
2023-04-18T01:57:37.016Z,95172.00
2023-04-18T01:58:37.125Z,95170.00
2023-04-18T01:59:37.163Z,95174.00
2023-04-18T02:00:37.234Z,95170.00
2023-04-18T02:01:37.322Z,95174.00
2023-04-18T02:02:37.528Z,95174.00
2023-04-18T02:03:37.627Z,95174.00
2023-04-18T02:04:37.508Z,95170.00
2023-04-18T02:05:37.629Z,95168.00
2023-04-18T02:06:37.669Z,95170.00
2023-04-18T02:07:37.695Z,95170.00
2023-04-18T02:08:37.740Z,95170.00
2023-04-18T02:09:37.831Z,95170.00
2023-04-18T02:10:37.896Z,95168.00
2023-04-18T02:11:37.941Z,95172.00
2023-04-18T02:12:37.986Z,95170.00
2023-04-18T02:13:38.052Z,95172.00
2023-04-18T02:14:38.122Z,95170.00
2023-04-18T02:15:38.205Z,95170.00
2023-04-18T02:16:38.310Z,95170.00
2023-04-18T02:17:38.382Z,95166.00
2023-04-18T02:18:38.424Z,95166.00
2023-04-18T02:19:38.502Z,95166.00
2023-04-18T02:20:38.552Z,95172.00
2023-04-18T02:21:38.595Z,95170.00
2023-04-18T02:22:38.664Z,95170.00
2023-04-18T02:23:38.719Z,95170.00
2023-04-18T02:24:38.816Z,95172.00
2023-04-18T02:25:38.865Z,95170.00
2023-04-18T02:26:38.925Z,95172.00
2023-04-18T02:27:38.996Z,95172.00
2023-04-18T02:28:39.159Z,95170.00
2023-04-18T02:29:39.108Z,95172.00
2023-04-18T02:30:39.179Z,95174.00
2023-04-18T02:31:39.242Z,95172.00
2023-04-18T02:32:39.354Z,95172.00
2023-04-18T02:33:39.346Z,95172.00
2023-04-18T02:34:39.424Z,95174.00
2023-04-18T02:35:39.491Z,95172.00
2023-04-18T02:36:39.514Z,95174.00
2023-04-18T02:37:39.611Z,95170.00
2023-04-18T02:38:39.672Z,95175.00
2023-04-18T02:39:39.741Z,95175.00
2023-04-18T02:40:39.814Z,95172.00
2023-04-18T02:41:39.855Z,95172.00
2023-04-18T02:42:39.930Z,95174.00
2023-04-18T02:43:40.007Z,95170.00
2023-04-18T02:44:40.066Z,95172.00
2023-04-18T02:45:40.188Z,95172.00
2023-04-18T02:46:40.205Z,95174.00
2023-04-18T02:47:51.121Z,95172.00
2023-04-18T02:48:41.275Z,95174.00
2023-04-18T02:49:40.304Z,95170.00
2023-04-18T02:50:40.253Z,95170.00
2023-04-18T02:51:40.225Z,95172.00
2023-04-18T02:52:40.273Z,95168.00
2023-04-18T02:53:40.260Z,95168.00
2023-04-18T02:54:40.234Z,95168.00
2023-04-18T02:55:40.260Z,95170.00
2023-04-18T02:56:40.264Z,95166.00
2023-04-18T02:57:40.252Z,95166.00
2023-04-18T02:58:40.282Z,95162.00
2023-04-18T02:59:40.379Z,95164.00
2023-04-18T03:00:40.418Z,95164.00
2023-04-18T03:01:40.544Z,95166.00
2023-04-18T03:02:40.650Z,95166.00
2023-04-18T03:03:40.592Z,95162.00
2023-04-18T03:04:40.651Z,95162.00
2023-04-18T03:05:40.709Z,95164.00
2023-04-18T03:06:40.773Z,95164.00
2023-04-18T03:07:40.825Z,95166.00
2023-04-18T03:08:40.847Z,95164.00
2023-04-18T03:09:40.937Z,95162.00
2023-04-18T03:10:41.002Z,95160.00
2023-04-18T03:11:41.130Z,95160.00
2023-04-18T03:12:41.080Z,95162.00
2023-04-18T03:13:41.152Z,95152.00
2023-04-18T03:14:41.208Z,95160.00
2023-04-18T03:15:41.309Z,95160.00
2023-04-18T03:16:41.319Z,95152.00
2023-04-18T03:17:41.463Z,95160.00
2023-04-18T03:18:41.434Z,95152.00
2023-04-18T03:19:41.478Z,95150.00
2023-04-18T03:20:41.492Z,95150.00
2023-04-18T03:21:41.584Z,95160.00
2023-04-18T03:22:41.625Z,95152.00
2023-04-18T03:23:41.695Z,95152.00
2023-04-18T03:24:41.801Z,95150.00
2023-04-18T03:25:41.762Z,95150.00
2023-04-18T03:26:41.793Z,95150.00
2023-04-18T03:27:41.851Z,95148.00
2023-04-18T03:28:41.866Z,95146.00
2023-04-18T03:29:41.933Z,95152.00
2023-04-18T03:30:41.990Z,95148.00
2023-04-18T03:31:42.171Z,95150.00
2023-04-18T03:32:42.332Z,95160.00
2023-04-18T03:33:42.115Z,95150.00
2023-04-18T03:34:42.144Z,95152.00
2023-04-18T03:35:42.201Z,95150.00
2023-04-18T03:36:42.268Z,95160.00
2023-04-18T03:37:42.272Z,95150.00
2023-04-18T03:38:42.332Z,95152.00
2023-04-18T03:39:42.373Z,95152.00
2023-04-18T03:40:42.414Z,95160.00
2023-04-18T03:41:42.483Z,95152.00
2023-04-18T03:42:42.517Z,95160.00
2023-04-18T03:43:42.568Z,95160.00
2023-04-18T03:44:42.598Z,95152.00
2023-04-18T03:45:42.646Z,95150.00
2023-04-18T03:46:42.757Z,95148.00
2023-04-18T03:47:42.801Z,95148.00
2023-04-18T03:48:42.751Z,95148.00
2023-04-18T03:49:42.802Z,95146.00
2023-04-18T03:50:42.818Z,95146.00
2023-04-18T03:51:42.864Z,95144.00
2023-04-18T03:52:42.908Z,95146.00
2023-04-18T03:53:42.952Z,95148.00
2023-04-18T03:54:42.982Z,95146.00
2023-04-18T03:55:42.982Z,95148.00
2023-04-18T03:56:43.055Z,95146.00
2023-04-18T03:57:43.093Z,95146.00
2023-04-18T03:58:43.143Z,95148.00
2023-04-18T03:59:43.165Z,95150.00
2023-04-18T04:00:43.193Z,95150.00
2023-04-18T04:01:43.269Z,95150.00
2023-04-18T04:02:43.416Z,95146.00
2023-04-18T04:03:43.452Z,95152.00
2023-04-18T04:04:43.424Z,95150.00
2023-04-18T04:05:43.395Z,95150.00
2023-04-18T04:06:43.462Z,95150.00
2023-04-18T04:07:43.459Z,95148.00
2023-04-18T04:08:43.503Z,95150.00
2023-04-18T04:09:43.519Z,95150.00
2023-04-18T04:10:43.567Z,95150.00
2023-04-18T04:11:43.608Z,95148.00
2023-04-18T04:12:43.624Z,95148.00
2023-04-18T04:13:43.669Z,95148.00
2023-04-18T04:14:43.739Z,95160.00
2023-04-18T04:15:43.777Z,95162.00
2023-04-18T04:16:43.787Z,95152.00
2023-04-18T04:17:43.850Z,95150.00
2023-04-18T04:18:43.841Z,95150.00
2023-04-18T04:19:43.854Z,95152.00
2023-04-18T04:20:43.936Z,95162.00
2023-04-18T04:21:43.969Z,95164.00
2023-04-18T04:22:43.987Z,95164.00
2023-04-18T04:23:44.007Z,95164.00
2023-04-18T04:24:44.037Z,95166.00
2023-04-18T04:25:44.035Z,95166.00
2023-04-18T04:26:44.090Z,95168.00
2023-04-18T04:27:44.104Z,95166.00
2023-04-18T04:28:44.132Z,95170.00
2023-04-18T04:29:44.201Z,95170.00
2023-04-18T04:30:44.211Z,95168.00
2023-04-18T04:31:44.298Z,95170.00
2023-04-18T04:32:44.315Z,95168.00
2023-04-18T04:33:44.300Z,95168.00
2023-04-18T04:34:44.337Z,95170.00
2023-04-18T04:35:44.365Z,95170.00
2023-04-18T04:36:44.426Z,95172.00
2023-04-18T04:37:44.458Z,95170.00
2023-04-18T04:38:44.490Z,95174.00
2023-04-18T04:39:44.498Z,95172.00
2023-04-18T04:40:44.550Z,95172.00
2023-04-18T04:41:44.543Z,95174.00
2023-04-18T04:42:44.601Z,95172.00
2023-04-18T04:43:44.630Z,95175.00
2023-04-18T04:44:44.672Z,95175.00
2023-04-18T04:45:44.770Z,95174.00
2023-04-18T04:46:44.712Z,95175.00
2023-04-18T04:47:44.774Z,95177.00
2023-04-18T04:48:44.742Z,95177.00
2023-04-18T04:49:44.789Z,95177.00
2023-04-18T04:50:44.848Z,95177.00
2023-04-18T04:51:44.871Z,95177.00
2023-04-18T04:52:44.882Z,95177.00
2023-04-18T04:53:44.912Z,95177.00
2023-04-18T04:54:44.961Z,95177.00
2023-04-18T04:55:44.987Z,95179.00
2023-04-18T04:56:45.035Z,95179.00
2023-04-18T04:57:45.048Z,95181.00
2023-04-18T04:58:45.066Z,95181.00
2023-04-18T04:59:45.111Z,95181.00
2023-04-18T05:00:52.155Z,95181.00
2023-04-18T05:01:45.165Z,95181.00
2023-04-18T05:02:45.272Z,95181.00
2023-04-18T05:03:45.397Z,95183.00
2023-04-18T05:04:45.180Z,95185.00
2023-04-18T05:05:45.160Z,95183.00
2023-04-18T05:06:45.195Z,95181.00
2023-04-18T05:07:45.175Z,95185.00
2023-04-18T05:08:45.191Z,95185.00
2023-04-18T05:09:45.165Z,95187.00
2023-04-18T05:10:45.180Z,95187.00
2023-04-18T05:11:45.175Z,95187.00
2023-04-18T05:12:45.175Z,95187.00
2023-04-18T05:13:45.158Z,95189.00
2023-04-18T05:14:45.176Z,95189.00
2023-04-18T05:15:45.133Z,95191.00
2023-04-18T05:16:45.225Z,95191.00
2023-04-18T05:17:45.159Z,95193.00
2023-04-18T05:18:45.172Z,95193.00
2023-04-18T05:19:45.163Z,95197.00
2023-04-18T05:20:45.134Z,95193.00
2023-04-18T05:21:45.164Z,95193.00
2023-04-18T05:22:45.176Z,95193.00
2023-04-18T05:23:45.150Z,95193.00
2023-04-18T05:24:45.167Z,95193.00
2023-04-18T05:25:45.170Z,95191.00
2023-04-18T05:26:45.200Z,95193.00
2023-04-18T05:27:45.189Z,95195.00
2023-04-18T05:28:45.180Z,95195.00
2023-04-18T05:29:45.164Z,95195.00
2023-04-18T05:30:45.188Z,95193.00
2023-04-18T05:31:45.159Z,95193.00
2023-04-18T05:32:45.221Z,95193.00
2023-04-18T05:33:45.528Z,95193.00
2023-04-18T05:34:45.219Z,95191.00
2023-04-18T05:35:45.248Z,95193.00
2023-04-18T05:36:45.181Z,95189.00
2023-04-18T05:37:45.233Z,95193.00
2023-04-18T05:38:45.405Z,95195.00
2023-04-18T05:39:45.236Z,95191.00
2023-04-18T05:40:45.289Z,95191.00
2023-04-18T05:41:45.961Z,95193.00
2023-04-18T05:42:45.359Z,95193.00
2023-04-18T05:43:51.125Z,95195.00
2023-04-18T05:44:46.331Z,95193.00
2023-04-18T05:45:52.736Z,95195.00
2023-04-18T05:46:45.436Z,95199.00
2023-04-18T05:47:45.455Z,95197.00
2023-04-18T05:48:45.473Z,95199.00
2023-04-18T05:49:45.444Z,95199.00
2023-04-18T05:50:45.487Z,95203.00
2023-04-18T05:51:45.480Z,95201.00
2023-04-18T05:52:45.494Z,95201.00
2023-04-18T05:53:45.941Z,95205.00
2023-04-18T05:54:45.514Z,95205.00
2023-04-18T05:55:45.526Z,95207.00
2023-04-18T05:56:45.535Z,95207.00
2023-04-18T05:57:45.556Z,95207.00
2023-04-18T05:58:45.594Z,95209.00
2023-04-18T05:59:45.569Z,95207.00
2023-04-18T06:00:45.581Z,95209.00
2023-04-18T06:01:45.580Z,95209.00
2023-04-18T06:02:45.790Z,95211.00
2023-04-18T06:03:45.777Z,95211.00
2023-04-18T06:04:45.746Z,95213.00
2023-04-18T06:05:45.582Z,95215.00
2023-04-18T06:06:45.599Z,95217.00
2023-04-18T06:07:45.584Z,95217.00
2023-04-18T06:08:45.618Z,95217.00
2023-04-18T06:09:45.703Z,95215.00
2023-04-18T06:10:45.608Z,95219.00
2023-04-18T06:11:45.593Z,95222.00
2023-04-18T06:12:45.612Z,95219.00
2023-04-18T06:13:45.598Z,95217.00
2023-04-18T06:14:45.617Z,95219.00
2023-04-18T06:15:45.641Z,95219.00
2023-04-18T06:16:45.634Z,95222.00
2023-04-18T06:17:45.758Z,95222.00
2023-04-18T06:18:45.654Z,95222.00
2023-04-18T06:19:45.671Z,95224.00
2023-04-18T06:20:45.707Z,95222.00
2023-04-18T06:21:45.683Z,95226.00
2023-04-18T06:22:45.777Z,95226.00
2023-04-18T06:23:46.039Z,95226.00
2023-04-18T06:24:45.842Z,95224.00
2023-04-18T06:25:45.901Z,95226.00
2023-04-18T06:26:45.975Z,95226.00
2023-04-18T06:27:45.961Z,95226.00
2023-04-18T06:28:46.016Z,95226.00
2023-04-18T06:29:46.071Z,95226.00
2023-04-18T06:30:46.097Z,95224.00
2023-04-18T06:31:46.214Z,95226.00
2023-04-18T06:32:46.242Z,95230.00
2023-04-18T06:33:46.528Z,95228.00
2023-04-18T06:34:46.253Z,95230.00
2023-04-18T06:35:46.313Z,95230.00
2023-04-18T06:36:46.362Z,95230.00
2023-04-18T06:37:46.415Z,95230.00
2023-04-18T06:38:46.451Z,95226.00
2023-04-18T06:39:46.528Z,95228.00
2023-04-18T06:40:46.445Z,95228.00
2023-04-18T06:41:46.445Z,95224.00
2023-04-18T06:42:46.490Z,95226.00
2023-04-18T06:43:59.747Z,95226.00
2023-04-18T06:44:47.477Z,95230.00
2023-04-18T06:45:46.485Z,95226.00
2023-04-18T06:46:47.451Z,95228.00
2023-04-18T06:47:46.502Z,95228.00
2023-04-18T06:48:46.456Z,95228.00
2023-04-18T06:49:46.437Z,95226.00
2023-04-18T06:50:46.990Z,95226.00
2023-04-18T06:51:46.473Z,95228.00
2023-04-18T06:52:46.439Z,95228.00
2023-04-18T06:53:46.488Z,95226.00
2023-04-18T06:54:46.456Z,95230.00
2023-04-18T06:55:46.462Z,95226.00
2023-04-18T06:56:46.479Z,95224.00
2023-04-18T06:57:46.536Z,95228.00
2023-04-18T06:58:46.962Z,95228.00
2023-04-18T06:59:46.573Z,95228.00
2023-04-18T07:00:46.658Z,95226.00
2023-04-18T07:01:46.770Z,95224.00
2023-04-18T07:02:46.910Z,95222.00
2023-04-18T07:03:47.150Z,95228.00
2023-04-18T07:04:47.169Z,95226.00
2023-04-18T07:05:46.981Z,95224.00
2023-04-18T07:06:47.042Z,95224.00
2023-04-18T07:07:47.091Z,95224.00
2023-04-18T07:08:47.503Z,95224.00
2023-04-18T07:09:47.183Z,95222.00
2023-04-18T07:10:47.246Z,95224.00
2023-04-18T07:11:47.282Z,95222.00
2023-04-18T07:12:47.339Z,95222.00
2023-04-18T07:13:47.398Z,95226.00
2023-04-18T07:14:47.405Z,95224.00
2023-04-18T07:15:47.477Z,95224.00
2023-04-18T07:16:47.593Z,95222.00
2023-04-18T07:17:47.611Z,95221.00
2023-04-18T07:18:47.611Z,95222.00
2023-04-18T07:19:47.678Z,95221.00
2023-04-18T07:20:47.709Z,95219.00
2023-04-18T07:21:47.734Z,95219.00
2023-04-18T07:22:47.760Z,95219.00
2023-04-18T07:23:47.803Z,95219.00
2023-04-18T07:24:47.889Z,95219.00
2023-04-18T07:25:48.493Z,95219.00
2023-04-18T07:26:47.952Z,95222.00
2023-04-18T07:27:48.141Z,95221.00
2023-04-18T07:28:48.015Z,95226.00
2023-04-18T07:29:48.486Z,95221.00
2023-04-18T07:30:48.107Z,95222.00
2023-04-18T07:31:48.175Z,95224.00
2023-04-18T07:32:48.193Z,95224.00
2023-04-18T07:33:48.259Z,95226.00
2023-04-18T07:34:48.293Z,95228.00
2023-04-18T07:35:48.426Z,95228.00
2023-04-18T07:36:48.394Z,95226.00
2023-04-18T07:37:48.439Z,95230.00
2023-04-18T07:38:48.472Z,95230.00
2023-04-18T07:39:48.981Z,95232.00
2023-04-18T07:40:48.587Z,95232.00
2023-04-18T07:41:48.632Z,95230.00
2023-04-18T07:42:48.675Z,95230.00
2023-04-18T07:43:48.698Z,95232.00
2023-04-18T07:44:48.801Z,95228.00
2023-04-18T07:45:48.888Z,95232.00
2023-04-18T07:46:48.984Z,95230.00
2023-04-18T07:47:49.044Z,95232.00
2023-04-18T07:48:49.052Z,95230.00
2023-04-18T07:49:49.121Z,95226.00
2023-04-18T07:50:49.199Z,95230.00
2023-04-18T07:51:49.260Z,95232.00
2023-04-18T07:52:49.285Z,95230.00
2023-04-18T07:53:49.368Z,95230.00
2023-04-18T07:54:49.335Z,95228.00
2023-04-18T07:55:49.402Z,95228.00
2023-04-18T07:56:49.433Z,95230.00
2023-04-18T07:57:49.495Z,95226.00
2023-04-18T07:58:49.445Z,95226.00
2023-04-18T07:59:49.515Z,95230.00
2023-04-18T08:00:49.527Z,95226.00
2023-04-18T08:01:49.510Z,95226.00
2023-04-18T08:02:49.616Z,95226.00
2023-04-18T08:03:49.589Z,95226.00
2023-04-18T08:04:49.741Z,95228.00
2023-04-18T08:05:49.553Z,95221.00
2023-04-18T08:06:49.504Z,95224.00
2023-04-18T08:07:49.509Z,95224.00
2023-04-18T08:08:49.530Z,95222.00
2023-04-18T08:09:49.488Z,95221.00
2023-04-18T08:10:49.528Z,95222.00
2023-04-18T08:11:49.589Z,95224.00
2023-04-18T08:12:49.616Z,95224.00
2023-04-18T08:13:49.675Z,95222.00
2023-04-18T08:14:49.669Z,95221.00
2023-04-18T08:15:49.867Z,95219.00
2023-04-18T08:16:49.753Z,95219.00
2023-04-18T08:17:49.863Z,95219.00
2023-04-18T08:18:49.873Z,95215.00
2023-04-18T08:19:50.564Z,95215.00
2023-04-18T08:20:49.985Z,95215.00
2023-04-18T08:21:49.992Z,95219.00
2023-04-18T08:23:05.246Z,95217.00
2023-04-18T08:23:51.038Z,95219.00
2023-04-18T08:25:03.829Z,95217.00
2023-04-18T08:25:51.039Z,95215.00
2023-04-18T08:26:50.015Z,95215.00
2023-04-18T08:27:49.966Z,95213.00
2023-04-18T08:28:49.988Z,95211.00
2023-04-18T08:29:50.020Z,95213.00
2023-04-18T08:30:49.945Z,95211.00
2023-04-18T08:31:50.077Z,95207.00
2023-04-18T08:32:50.020Z,95209.00
2023-04-18T08:33:49.952Z,95209.00
2023-04-18T08:34:50.009Z,95205.00
2023-04-18T08:35:49.927Z,95205.00
2023-04-18T08:36:49.886Z,95203.00
2023-04-18T08:37:49.892Z,95201.00
2023-04-18T08:38:49.906Z,95205.00
2023-04-18T08:39:50.015Z,95201.00
2023-04-18T08:40:49.959Z,95205.00
2023-04-18T08:41:50.034Z,95205.00
2023-04-18T08:42:50.053Z,95205.00
2023-04-18T08:43:50.114Z,95201.00
2023-04-18T08:44:50.517Z,95207.00
2023-04-18T08:45:50.195Z,95211.00
2023-04-18T08:46:50.267Z,95207.00
2023-04-18T08:47:50.364Z,95207.00
2023-04-18T08:48:50.374Z,95205.00
2023-04-18T08:49:50.552Z,95211.00
2023-04-18T08:50:50.493Z,95213.00
2023-04-18T08:51:50.591Z,95213.00
2023-04-18T08:52:50.579Z,95217.00
2023-04-18T08:53:50.652Z,95215.00
2023-04-18T08:54:50.735Z,95213.00
2023-04-18T08:55:50.795Z,95211.00
2023-04-18T08:56:50.858Z,95213.00
2023-04-18T08:57:50.950Z,95211.00
2023-04-18T08:58:51.073Z,95215.00
2023-04-18T08:59:51.515Z,95215.00
2023-04-18T09:00:51.136Z,95215.00
2023-04-18T09:01:51.172Z,95213.00
2023-04-18T09:02:51.248Z,95209.00
2023-04-18T09:03:51.236Z,95207.00
2023-04-18T09:04:51.531Z,95207.00
2023-04-18T09:05:51.347Z,95213.00
2023-04-18T09:06:51.381Z,95205.00
2023-04-18T09:07:51.461Z,95209.00
2023-04-18T09:08:51.493Z,95209.00
2023-04-18T09:09:52.048Z,95207.00
2023-04-18T09:10:51.643Z,95207.00
2023-04-18T09:11:51.692Z,95207.00
2023-04-18T09:12:51.770Z,95203.00
2023-04-18T09:13:51.850Z,95207.00
2023-04-18T09:14:51.880Z,95201.00
2023-04-18T09:15:51.930Z,95203.00
2023-04-18T09:16:52.043Z,95205.00
2023-04-18T09:17:52.098Z,95201.00
2023-04-18T09:18:52.153Z,95203.00
2023-04-18T09:19:52.581Z,95201.00
2023-04-18T09:20:52.275Z,95205.00
2023-04-18T09:21:52.335Z,95203.00
2023-04-18T09:22:52.503Z,95199.00
2023-04-18T09:23:53.020Z,95195.00
2023-04-18T09:24:53.052Z,95195.00
2023-04-18T09:25:52.596Z,95199.00
2023-04-18T09:26:52.617Z,95197.00
2023-04-18T09:27:52.719Z,95195.00
2023-04-18T09:28:53.817Z,95197.00
2023-04-18T09:29:53.579Z,95189.00
2023-04-18T09:30:52.986Z,95191.00
2023-04-18T09:31:52.924Z,95191.00
2023-04-18T09:32:53.057Z,95189.00
2023-04-18T09:33:54.052Z,95187.00
2023-04-18T09:34:53.578Z,95191.00
2023-04-18T09:35:53.232Z,95189.00
2023-04-18T09:36:53.290Z,95183.00
2023-04-18T09:37:53.304Z,95181.00
2023-04-18T09:38:56.240Z,95181.00
2023-04-18T09:39:53.392Z,95187.00
2023-04-18T09:40:53.571Z,95183.00
2023-04-18T09:41:53.559Z,95179.00
2023-04-18T09:42:53.413Z,95181.00
2023-04-18T09:43:53.448Z,95181.00
2023-04-18T09:44:55.138Z,95183.00
2023-04-18T09:45:53.472Z,95179.00
2023-04-18T09:46:53.403Z,95181.00
2023-04-18T09:47:53.515Z,95181.00
2023-04-18T09:48:53.443Z,95179.00
2023-04-18T09:49:53.498Z,95177.00
2023-04-18T09:50:53.575Z,95181.00
2023-04-18T09:51:53.494Z,95185.00
2023-04-18T09:52:53.485Z,95179.00
2023-04-18T09:53:53.454Z,95175.00
2023-04-18T09:54:53.503Z,95175.00
2023-04-18T09:55:54.961Z,95183.00
2023-04-18T09:56:53.475Z,95179.00
2023-04-18T09:57:53.478Z,95181.00
2023-04-18T09:58:53.479Z,95177.00
2023-04-18T09:59:53.454Z,95183.00
2023-04-18T10:00:53.582Z,95179.00
2023-04-18T10:01:53.534Z,95175.00
2023-04-18T10:02:53.639Z,95175.00
2023-04-18T10:03:53.533Z,95177.00
2023-04-18T10:04:53.588Z,95177.00
2023-04-18T10:05:53.947Z,95170.00
2023-04-18T10:06:53.486Z,95170.00
2023-04-18T10:07:53.514Z,95174.00
2023-04-18T10:08:53.506Z,95170.00
2023-04-18T10:09:53.484Z,95170.00
2023-04-18T10:10:53.502Z,95168.00
2023-04-18T10:11:53.509Z,95166.00
2023-04-18T10:12:53.490Z,95166.00
2023-04-18T10:13:53.587Z,95164.00
2023-04-18T10:14:53.532Z,95166.00
2023-04-18T10:15:53.556Z,95164.00
2023-04-18T10:16:53.463Z,95152.00
2023-04-18T10:18:03.517Z,95150.00
2023-04-18T10:18:54.485Z,95148.00
2023-04-18T10:19:53.478Z,95152.00
2023-04-18T10:20:53.565Z,95150.00
2023-04-18T10:21:53.482Z,95148.00
2023-04-18T10:22:53.468Z,95146.00
2023-04-18T10:23:53.465Z,95144.00
2023-04-18T10:24:53.835Z,95144.00
2023-04-18T10:25:53.574Z,95144.00
2023-04-18T10:26:53.485Z,95144.00
2023-04-18T10:27:53.540Z,95146.00
2023-04-18T10:28:53.782Z,95142.00
2023-04-18T10:29:53.509Z,95144.00
2023-04-18T10:30:53.599Z,95142.00
2023-04-18T10:31:53.593Z,95138.00
2023-04-18T10:32:53.588Z,95138.00
2023-04-18T10:34:03.804Z,95138.00
2023-04-18T10:34:54.628Z,95138.00
2023-04-18T10:35:54.103Z,95134.00
2023-04-18T10:36:53.591Z,95134.00
2023-04-18T10:37:53.588Z,95132.00
2023-04-18T10:38:53.640Z,95130.00
2023-04-18T10:39:53.601Z,95126.00
2023-04-18T10:40:54.139Z,95128.00
2023-04-18T10:41:53.579Z,95126.00
2023-04-18T10:42:53.664Z,95130.00
2023-04-18T10:43:53.597Z,95124.00
2023-04-18T10:44:53.598Z,95124.00
2023-04-18T10:45:53.658Z,95122.00
2023-04-18T10:46:53.706Z,95122.00
2023-04-18T10:47:53.652Z,95122.00
2023-04-18T10:48:53.610Z,95124.00
2023-04-18T10:49:53.638Z,95119.00
2023-04-18T10:50:53.784Z,95117.00
2023-04-18T10:51:53.836Z,95119.00
2023-04-18T10:52:53.824Z,95113.00
2023-04-18T10:53:53.913Z,95119.00
2023-04-18T10:54:53.972Z,95115.00
2023-04-18T10:55:54.027Z,95113.00
2023-04-18T10:56:54.088Z,95115.00
2023-04-18T10:57:54.166Z,95113.00
2023-04-18T10:58:54.225Z,95109.00
2023-04-18T10:59:54.257Z,95107.00
2023-04-18T11:00:54.366Z,95111.00
2023-04-18T11:01:54.452Z,95107.00
2023-04-18T11:02:54.558Z,95111.00
2023-04-18T11:03:54.541Z,95107.00
2023-04-18T11:04:54.555Z,95111.00
2023-04-18T11:05:54.666Z,95109.00
2023-04-18T11:06:54.650Z,95103.00
2023-04-18T11:07:54.692Z,95105.00
2023-04-18T11:08:54.731Z,95105.00
2023-04-18T11:09:54.796Z,95101.00
2023-04-18T11:10:54.798Z,95101.00
2023-04-18T11:11:54.844Z,95097.00
2023-04-18T11:12:54.861Z,95099.00
2023-04-18T11:13:54.916Z,95095.00
2023-04-18T11:14:54.889Z,95097.00
2023-04-18T11:15:55.152Z,95095.00
2023-04-18T11:16:55.087Z,95093.00
2023-04-18T11:17:55.071Z,95093.00
2023-04-18T11:18:55.069Z,95095.00
2023-04-18T11:19:55.064Z,95091.00
2023-04-18T11:20:55.114Z,95087.00
2023-04-18T11:21:55.167Z,95085.00
2023-04-18T11:22:55.202Z,95085.00
2023-04-18T11:23:55.299Z,95081.00
2023-04-18T11:24:55.353Z,95083.00
2023-04-18T11:25:55.385Z,95083.00
2023-04-18T11:26:55.787Z,95085.00
2023-04-18T11:27:55.485Z,95083.00
2023-04-18T11:28:55.564Z,95081.00
2023-04-18T11:29:55.603Z,95083.00
2023-04-18T11:30:55.602Z,95087.00
2023-04-18T11:31:58.640Z,95089.00
2023-04-18T11:32:55.717Z,95089.00
2023-04-18T11:33:55.613Z,95089.00
2023-04-18T11:34:55.636Z,95087.00
2023-04-18T11:35:55.642Z,95083.00
2023-04-18T11:36:55.588Z,95083.00
2023-04-18T11:37:55.628Z,95087.00
2023-04-18T11:38:56.117Z,95083.00
2023-04-18T11:39:55.549Z,95083.00
2023-04-18T11:40:55.546Z,95085.00
2023-04-18T11:41:55.591Z,95083.00
2023-04-18T11:42:55.627Z,95083.00
2023-04-18T11:43:55.563Z,95083.00
2023-04-18T11:44:55.546Z,95081.00